Time;durP1;ratioP1;P1;durP2;ratioP2;P2;SDS_P1;SDS_P2;PMS_P1;PMS_P2;Temp;Humidity;BMP_temperature;BMP_pressure;BME280_temperature;BME280_humidity;BME280_pressure;Samples;Min_cycle;Max_cycle;Signal;HPM_P1;HPM_P2
2023/03/06 00:00:35;;;;;;;6.40;4.55;;;;;;;;;;769900;180;919045;-67
2023/03/06 00:03:01;;;;;;;8.80;4.33;;;;;;;;;;772963;180;921417;-69
2023/03/06 00:05:27;;;;;;;7.20;4.40;;;;;;;;;;766735;180;915997;-70
2023/03/06 00:07:52;;;;;;;10.03;4.00;;;;;;;;;;768637;180;919558;-67
2023/03/06 00:10:18;;;;;;;7.87;4.33;;;;;;;;;;766409;181;934444;-68
2023/03/06 00:12:44;;;;;;;6.95;3.92;;;;;;;;;;773506;179;923730;-67
2023/03/06 00:15:10;;;;;;;6.23;4.30;;;;;;;;;;767125;181;918797;-67
2023/03/06 00:17:36;;;;;;;6.40;4.13;;;;;;;;;;770620;181;919907;-67
2023/03/06 00:20:02;;;;;;;7.55;4.75;;;;;;;;;;766533;183;919041;-69
2023/03/06 00:22:28;;;;;;;6.47;4.73;;;;;;;;;;765686;180;918519;-68
2023/03/06 00:24:53;;;;;;;9.93;4.10;;;;;;;;;;767476;181;919590;-69
2023/03/06 00:27:19;;;;;;;9.40;4.40;;;;;;;;;;772784;181;919212;-69
2023/03/06 00:29:48;;;;;;;14.70;4.47;;;;;;;;;;767340;180;919523;-70
2023/03/06 00:32:11;;;;;;;7.60;4.57;;;;;;;;;;773880;178;918856;-67
2023/03/06 00:34:37;;;;;;;7.75;4.50;;;;;;;;;;775977;180;920810;-69
2023/03/06 00:37:03;;;;;;;7.33;4.90;;;;;;;;;;778271;178;1017007;-67
2023/03/06 00:39:29;;;;;;;8.93;5.40;;;;;;;;;;767665;181;915028;-68
2023/03/06 00:41:55;;;;;;;8.53;5.13;;;;;;;;;;770769;180;914993;-69
2023/03/06 00:44:21;;;;;;;10.07;4.90;;;;;;;;;;775582;181;815658;-68
2023/03/06 00:46:46;;;;;;;6.22;4.20;;;;;;;;;;768312;181;927156;-68
2023/03/06 00:49:12;;;;;;;7.00;3.90;;;;;;;;;;773259;181;918869;-69
2023/03/06 00:51:38;;;;;;;5.73;4.10;;;;;;;;;;778152;181;819759;-68
2023/03/06 00:54:04;;;;;;;6.80;4.47;;;;;;;;;;771567;180;918597;-68
2023/03/06 00:56:30;;;;;;;7.43;5.50;;;;;;;;;;771788;180;918437;-69
2023/03/06 00:58:56;;;;;;;7.07;4.33;;;;;;;;;;777181;180;918417;-69
2023/03/06 01:01:22;;;;;;;6.77;5.10;;;;;;;;;;769580;180;918647;-66
2023/03/06 01:03:47;;;;;;;9.32;5.05;;;;;;;;;;770842;180;919020;-67
2023/03/06 01:06:13;;;;;;;5.70;4.37;;;;;;;;;;772091;181;916606;-67
2023/03/06 01:08:39;;;;;;;9.43;4.90;;;;;;;;;;777920;181;915754;-66
2023/03/06 01:11:05;;;;;;;7.17;4.80;;;;;;;;;;769251;181;918476;-66
2023/03/06 01:13:31;;;;;;;8.20;5.20;;;;;;;;;;769694;180;922437;-66
2023/03/06 01:15:57;;;;;;;11.23;4.80;;;;;;;;;;772058;181;917387;-66
2023/03/06 01:18:22;;;;;;;7.77;4.13;;;;;;;;;;764454;182;1021883;-67
2023/03/06 01:20:48;;;;;;;6.20;4.10;;;;;;;;;;772314;180;919169;-66
2023/03/06 01:23:14;;;;;;;5.87;4.70;;;;;;;;;;778589;180;908132;-66
2023/03/06 01:25:40;;;;;;;7.00;4.43;;;;;;;;;;766470;181;918752;-68
2023/03/06 01:28:06;;;;;;;11.27;4.20;;;;;;;;;;776446;180;913702;-64
2023/03/06 01:30:32;;;;;;;7.53;4.33;;;;;;;;;;764235;180;922043;-66
2023/03/06 01:32:58;;;;;;;7.17;4.50;;;;;;;;;;774196;181;919651;-66
2023/03/06 01:35:23;;;;;;;12.02;4.28;;;;;;;;;;766853;181;912198;-67
2023/03/06 01:37:49;;;;;;;7.50;4.40;;;;;;;;;;771477;181;916386;-65
2023/03/06 01:40:15;;;;;;;6.83;4.30;;;;;;;;;;777701;181;915912;-65
2023/03/06 01:42:41;;;;;;;5.30;3.87;;;;;;;;;;773299;180;812965;-66
2023/03/06 01:45:08;;;;;;;8.77;4.43;;;;;;;;;;771948;180;916967;-65
2023/03/06 01:47:34;;;;;;;7.00;3.80;;;;;;;;;;779148;180;916985;-65
2023/03/06 01:50:02;;;;;;;6.97;4.37;;;;;;;;;;771271;181;818169;-64
2023/03/06 01:52:26;;;;;;;7.63;4.90;;;;;;;;;;769049;181;918636;-64
2023/03/06 01:54:52;;;;;;;5.97;3.93;;;;;;;;;;770263;181;873910;-63
2023/03/06 01:57:18;;;;;;;8.73;5.10;;;;;;;;;;773084;179;919303;-63
2023/03/06 01:59:44;;;;;;;7.70;4.33;;;;;;;;;;768779;181;917160;-63
2023/03/06 02:02:10;;;;;;;10.90;4.53;;;;;;;;;;775525;180;921607;-63
2023/03/06 02:04:36;;;;;;;5.80;4.10;;;;;;;;;;777745;181;816846;-63
2023/03/06 02:07:03;;;;;;;15.23;5.40;;;;;;;;;;770935;181;919300;-65
2023/03/06 02:09:29;;;;;;;8.33;4.97;;;;;;;;;;768646;181;919646;-64
2023/03/06 02:11:53;;;;;;;5.90;4.30;;;;;;;;;;775310;181;918872;-62
2023/03/06 02:14:19;;;;;;;7.60;4.37;;;;;;;;;;771048;181;919080;-62
2023/03/06 02:16:45;;;;;;;7.50;4.70;;;;;;;;;;771247;180;919450;-63
2023/03/06 02:19:29;;;;;;;9.50;4.70;;;;;;;;;;774559;181;893927;-62
2023/03/06 02:21:54;;;;;;;10.03;4.53;;;;;;;;;;761092;182;884473;-64
2023/03/06 02:24:20;;;;;;;8.17;4.70;;;;;;;;;;763156;183;923526;-63
2023/03/06 02:26:46;;;;;;;6.67;4.50;;;;;;;;;;767312;181;910302;-63
2023/03/06 02:29:12;;;;;;;8.33;4.33;;;;;;;;;;768130;180;917182;-63
2023/03/06 02:31:38;;;;;;;7.80;4.70;;;;;;;;;;772587;181;1121778;-64
2023/03/06 02:34:04;;;;;;;9.80;4.77;;;;;;;;;;766348;181;915816;-65
2023/03/06 02:36:29;;;;;;;7.20;4.70;;;;;;;;;;771849;180;931884;-63
2023/03/06 02:38:55;;;;;;;8.32;5.05;;;;;;;;;;774887;181;918222;-64
2023/03/06 02:41:21;;;;;;;5.93;4.80;;;;;;;;;;765246;181;919897;-63
2023/03/06 02:43:47;;;;;;;9.70;5.20;;;;;;;;;;770519;181;917392;-64
2023/03/06 02:46:13;;;;;;;9.90;4.53;;;;;;;;;;771174;181;919061;-64
2023/03/06 02:48:39;;;;;;;8.03;4.80;;;;;;;;;;770441;181;938647;-64
2023/03/06 02:51:05;;;;;;;7.83;4.70;;;;;;;;;;765712;181;919312;-64
2023/03/06 02:53:30;;;;;;;11.20;5.57;;;;;;;;;;768954;181;916469;-66
2023/03/06 02:55:56;;;;;;;8.03;5.70;;;;;;;;;;777097;179;918739;-66
2023/03/06 02:58:22;;;;;;;7.73;4.80;;;;;;;;;;772110;180;920756;-67
2023/03/06 03:00:48;;;;;;;9.17;4.70;;;;;;;;;;772347;181;934857;-65
2023/03/06 03:03:14;;;;;;;9.30;5.10;;;;;;;;;;777131;180;818540;-66
2023/03/06 03:05:40;;;;;;;8.83;4.90;;;;;;;;;;772751;181;918728;-64
2023/03/06 03:08:05;;;;;;;8.17;4.90;;;;;;;;;;769255;179;917696;-66
2023/03/06 03:10:31;;;;;;;8.43;5.83;;;;;;;;;;772336;179;918639;-66
2023/03/06 03:12:57;;;;;;;8.80;5.70;;;;;;;;;;767602;181;918585;-66
2023/03/06 03:15:23;;;;;;;11.65;5.68;;;;;;;;;;771544;180;816161;-64
2023/03/06 03:17:49;;;;;;;9.70;5.93;;;;;;;;;;767758;181;1021893;-65
2023/03/06 03:20:15;;;;;;;8.00;4.80;;;;;;;;;;767649;182;888000;-66
2023/03/06 03:22:40;;;;;;;8.00;5.87;;;;;;;;;;770103;181;897135;-65
2023/03/06 03:25:06;;;;;;;6.70;4.77;;;;;;;;;;769211;181;914119;-64
2023/03/06 03:27:32;;;;;;;10.03;5.47;;;;;;;;;;781073;181;812631;-64
2023/03/06 03:29:58;;;;;;;8.87;4.67;;;;;;;;;;765131;183;1017686;-65
2023/03/06 03:32:24;;;;;;;7.00;4.40;;;;;;;;;;768840;180;922278;-67
2023/03/06 03:34:50;;;;;;;6.60;4.77;;;;;;;;;;776183;181;714690;-67
2023/03/06 03:37:16;;;;;;;8.27;4.90;;;;;;;;;;770972;180;1023679;-66
2023/03/06 03:39:42;;;;;;;8.07;5.03;;;;;;;;;;769137;181;818200;-64
2023/03/06 03:42:08;;;;;;;10.02;5.22;;;;;;;;;;770272;181;918407;-66
2023/03/06 03:44:33;;;;;;;6.40;5.23;;;;;;;;;;770610;179;816798;-67
2023/03/06 03:46:59;;;;;;;8.90;5.73;;;;;;;;;;771507;181;918544;-65
2023/03/06 03:49:25;;;;;;;11.57;5.35;;;;;;;;;;771481;181;913622;-65
2023/03/06 03:51:51;;;;;;;11.70;5.80;;;;;;;;;;777722;181;817055;-65
2023/03/06 03:54:17;;;;;;;7.47;4.40;;;;;;;;;;772020;181;928681;-66
2023/03/06 03:56:43;;;;;;;7.23;5.17;;;;;;;;;;771587;180;919172;-67
2023/03/06 03:59:08;;;;;;;7.27;4.90;;;;;;;;;;777597;180;810637;-65
2023/03/06 04:01:34;;;;;;;7.47;4.70;;;;;;;;;;769340;180;919155;-67
2023/03/06 04:04:00;;;;;;;8.87;5.70;;;;;;;;;;770787;180;918863;-68
2023/03/06 04:06:26;;;;;;;11.13;5.10;;;;;;;;;;777500;180;920093;-67
2023/03/06 04:08:52;;;;;;;11.80;6.60;;;;;;;;;;770351;180;918704;-67
2023/03/06 04:11:18;;;;;;;10.27;5.80;;;;;;;;;;769650;180;919150;-65
2023/03/06 04:13:44;;;;;;;9.13;6.73;;;;;;;;;;769381;181;918888;-67
2023/03/06 04:16:09;;;;;;;9.15;6.32;;;;;;;;;;773553;181;916144;-65
2023/03/06 04:18:35;;;;;;;9.00;5.60;;;;;;;;;;772222;180;914561;-65
2023/03/06 04:21:01;;;;;;;10.57;5.60;;;;;;;;;;770983;180;816435;-66
2023/03/06 04:23:27;;;;;;;9.07;6.10;;;;;;;;;;775600;181;918654;-65
2023/03/06 04:25:53;;;;;;;9.93;6.30;;;;;;;;;;763886;181;917724;-68
2023/03/06 04:28:19;;;;;;;9.77;6.30;;;;;;;;;;766834;181;913458;-67
2023/03/06 04:30:44;;;;;;;9.80;4.93;;;;;;;;;;775083;181;913532;-68
2023/03/06 04:33:10;;;;;;;10.70;6.43;;;;;;;;;;771662;180;918137;-67
2023/03/06 04:35:36;;;;;;;9.00;5.82;;;;;;;;;;780079;180;919377;-64
2023/03/06 04:38:02;;;;;;;10.97;6.20;;;;;;;;;;764020;182;1122816;-65
2023/03/06 04:40:28;;;;;;;10.00;6.60;;;;;;;;;;769109;179;819635;-68
2023/03/06 04:42:54;;;;;;;10.20;6.53;;;;;;;;;;775093;181;619934;-66
2023/03/06 04:45:19;;;;;;;10.30;6.57;;;;;;;;;;771872;180;916995;-68
2023/03/06 04:47:45;;;;;;;13.03;7.20;;;;;;;;;;776814;181;919306;-71
2023/03/06 04:50:11;;;;;;;11.93;6.77;;;;;;;;;;769684;181;920188;-68
2023/03/06 04:52:39;;;;;;;11.27;6.80;;;;;;;;;;771183;181;920218;-68
2023/03/06 04:55:07;;;;;;;11.20;7.27;;;;;;;;;;777554;181;620459;-65
2023/03/06 04:57:29;;;;;;;13.10;7.60;;;;;;;;;;765603;181;808748;-65
2023/03/06 04:59:55;;;;;;;11.20;6.23;;;;;;;;;;769063;180;935526;-68
2023/03/06 05:02:23;;;;;;;10.40;6.70;;;;;;;;;;774695;179;627805;-67
2023/03/06 05:04:47;;;;;;;11.17;5.93;;;;;;;;;;771014;182;621226;-65
2023/03/06 05:07:13;;;;;;;11.90;7.17;;;;;;;;;;767913;180;922889;-69
2023/03/06 05:09:39;;;;;;;9.97;6.00;;;;;;;;;;768482;181;918686;-69
2023/03/06 05:12:05;;;;;;;8.10;5.10;;;;;;;;;;775192;180;918729;-67
2023/03/06 05:14:30;;;;;;;11.10;7.30;;;;;;;;;;770620;180;919108;-66
2023/03/06 05:16:56;;;;;;;10.70;7.67;;;;;;;;;;769698;178;918884;-66
2023/03/06 05:19:22;;;;;;;10.50;6.23;;;;;;;;;;776207;179;844951;-69
2023/03/06 05:21:48;;;;;;;10.90;6.70;;;;;;;;;;770915;181;820763;-65
2023/03/06 05:24:14;;;;;;;12.03;6.90;;;;;;;;;;771030;180;817901;-69
2023/03/06 05:26:40;;;;;;;13.83;6.00;;;;;;;;;;778885;181;815888;-68
2023/03/06 05:29:05;;;;;;;12.83;6.97;;;;;;;;;;769032;181;940558;-64
2023/03/06 05:31:31;;;;;;;10.60;6.70;;;;;;;;;;771595;180;917849;-67
2023/03/06 05:33:57;;;;;;;15.60;8.65;;;;;;;;;;772628;181;922767;-68
2023/03/06 05:36:23;;;;;;;19.70;8.10;;;;;;;;;;776573;181;918549;-64
2023/03/06 05:38:49;;;;;;;8.37;6.40;;;;;;;;;;770138;181;912939;-65
2023/03/06 05:41:15;;;;;;;10.33;7.00;;;;;;;;;;769138;181;863122;-64
2023/03/06 05:43:40;;;;;;;9.37;7.00;;;;;;;;;;782972;179;816207;-67
2023/03/06 05:46:06;;;;;;;9.77;7.13;;;;;;;;;;763242;180;918452;-65
2023/03/06 05:48:33;;;;;;;10.07;5.83;;;;;;;;;;771912;179;638862;-69
2023/03/06 05:50:58;;;;;;;13.00;6.53;;;;;;;;;;778068;181;619777;-64
2023/03/06 05:53:25;;;;;;;9.57;6.10;;;;;;;;;;777925;180;650859;-65
2023/03/06 05:55:55;;;;;;;7.70;5.10;;;;;;;;;;773250;181;638024;-68
2023/03/06 05:58:21;;;;;;;8.47;5.30;;;;;;;;;;767473;182;882281;-68
2023/03/06 06:00:47;;;;;;;10.30;6.07;;;;;;;;;;772804;181;814391;-68
2023/03/06 06:03:13;;;;;;;10.00;6.10;;;;;;;;;;771364;180;842132;-66
2023/03/06 06:05:39;;;;;;;9.50;6.43;;;;;;;;;;768476;180;1020429;-66
2023/03/06 06:08:05;;;;;;;10.43;6.87;;;;;;;;;;773505;181;886392;-68
2023/03/06 06:10:31;;;;;;;12.20;5.40;;;;;;;;;;773303;179;916296;-66
2023/03/06 06:12:56;;;;;;;9.45;6.20;;;;;;;;;;768229;181;925377;-65
2023/03/06 06:15:22;;;;;;;10.10;6.10;;;;;;;;;;769628;181;919047;-68
2023/03/06 06:17:48;;;;;;;7.10;5.00;;;;;;;;;;772298;179;917705;-66
2023/03/06 06:20:16;;;;;;;8.60;5.40;;;;;;;;;;772841;180;816787;-68
2023/03/06 06:22:40;;;;;;;13.23;6.97;;;;;;;;;;772048;181;919578;-64
2023/03/06 06:25:06;;;;;;;9.93;6.40;;;;;;;;;;771575;182;919046;-65
2023/03/06 06:27:32;;;;;;;11.60;7.50;;;;;;;;;;765600;180;939628;-67
2023/03/06 06:29:58;;;;;;;12.70;7.10;;;;;;;;;;771292;180;848556;-66
2023/03/06 06:32:24;;;;;;;9.37;6.50;;;;;;;;;;776683;180;917916;-64
2023/03/06 06:34:49;;;;;;;9.80;6.28;;;;;;;;;;770912;181;920966;-66
2023/03/06 06:37:15;;;;;;;12.97;6.47;;;;;;;;;;770966;179;969153;-66
2023/03/06 06:39:42;;;;;;;11.35;7.45;;;;;;;;;;774485;180;917849;-65
2023/03/06 06:42:08;;;;;;;10.87;6.53;;;;;;;;;;773225;180;847641;-64
2023/03/06 06:44:33;;;;;;;17.27;7.23;;;;;;;;;;769374;180;918183;-63
2023/03/06 06:46:59;;;;;;;12.83;5.97;;;;;;;;;;767074;181;919075;-63
2023/03/06 06:49:25;;;;;;;9.83;5.70;;;;;;;;;;775954;181;904124;-66
2023/03/06 06:51:51;;;;;;;9.48;5.25;;;;;;;;;;773716;180;919986;-66
2023/03/06 06:54:18;;;;;;;10.97;5.80;;;;;;;;;;772651;181;918901;-63
2023/03/06 06:56:43;;;;;;;9.03;5.97;;;;;;;;;;777909;181;918797;-63
2023/03/06 06:59:08;;;;;;;11.67;5.90;;;;;;;;;;769296;181;1043888;-67
2023/03/06 07:01:34;;;;;;;9.20;5.90;;;;;;;;;;770922;181;916446;-66
2023/03/06 07:04:00;;;;;;;9.03;5.53;;;;;;;;;;776593;181;817122;-66
2023/03/06 07:06:26;;;;;;;7.47;4.97;;;;;;;;;;768971;180;921858;-64
2023/03/06 07:08:52;;;;;;;9.83;5.20;;;;;;;;;;770284;180;918845;-63
2023/03/06 07:11:18;;;;;;;9.25;5.78;;;;;;;;;;770203;180;902888;-66
2023/03/06 07:13:44;;;;;;;6.80;4.80;;;;;;;;;;777778;180;837523;-67
2023/03/06 07:16:09;;;;;;;9.20;5.30;;;;;;;;;;767257;181;920497;-67
2023/03/06 07:18:35;;;;;;;8.60;6.23;;;;;;;;;;768831;181;913588;-65
2023/03/06 07:21:01;;;;;;;9.20;5.47;;;;;;;;;;776974;180;829562;-67
2023/03/06 07:23:27;;;;;;;7.60;4.15;;;;;;;;;;769517;181;928013;-65
2023/03/06 07:25:53;;;;;;;9.70;5.60;;;;;;;;;;775056;180;916062;-66
2023/03/06 07:28:19;;;;;;;7.73;5.73;;;;;;;;;;766231;179;1026076;-65
2023/03/06 07:30:44;;;;;;;8.70;5.32;;;;;;;;;;766115;180;819418;-66
2023/03/06 07:33:10;;;;;;;10.53;5.43;;;;;;;;;;770393;181;881899;-67
2023/03/06 07:35:36;;;;;;;8.93;4.83;;;;;;;;;;772291;181;917027;-67
2023/03/06 07:38:02;;;;;;;8.17;4.70;;;;;;;;;;760642;183;919146;-65
2023/03/06 07:40:28;;;;;;;8.63;4.50;;;;;;;;;;772457;179;914382;-68
2023/03/06 07:42:54;;;;;;;14.67;5.40;;;;;;;;;;773086;179;938958;-64
2023/03/06 07:45:19;;;;;;;9.50;4.47;;;;;;;;;;778195;179;998094;-67
2023/03/06 07:47:45;;;;;;;7.20;3.93;;;;;;;;;;765692;180;921994;-68
2023/03/06 07:50:11;;;;;;;9.77;4.87;;;;;;;;;;772028;181;917028;-68
2023/03/06 07:52:37;;;;;;;5.97;4.50;;;;;;;;;;777761;180;906984;-69
2023/03/06 07:55:03;;;;;;;7.40;4.40;;;;;;;;;;773567;179;920241;-64
2023/03/06 07:57:29;;;;;;;7.60;4.47;;;;;;;;;;769419;180;919304;-64
2023/03/06 07:59:55;;;;;;;7.87;4.70;;;;;;;;;;773354;181;918943;-65
2023/03/06 08:02:21;;;;;;;8.00;4.27;;;;;;;;;;756864;183;918168;-64
2023/03/06 08:04:52;;;;;;;8.40;4.47;;;;;;;;;;766799;180;918888;-68
2023/03/06 08:07:18;;;;;;;10.40;4.17;;;;;;;;;;768527;181;919709;-64
2023/03/06 08:09:44;;;;;;;9.67;4.03;;;;;;;;;;769018;180;916201;-64
2023/03/06 08:12:10;;;;;;;6.80;5.00;;;;;;;;;;768987;181;920147;-66
2023/03/06 08:14:35;;;;;;;5.45;3.37;;;;;;;;;;767691;181;920658;-66
2023/03/06 08:17:01;;;;;;;6.93;4.37;;;;;;;;;;775351;181;919365;-66
2023/03/06 08:19:27;;;;;;;7.23;4.73;;;;;;;;;;771997;181;850963;-66
2023/03/06 08:21:53;;;;;;;9.10;5.00;;;;;;;;;;771092;180;916975;-63
2023/03/06 08:24:19;;;;;;;7.30;4.40;;;;;;;;;;769900;181;1019826;-67
2023/03/06 08:26:45;;;;;;;7.30;4.07;;;;;;;;;;776515;181;714935;-68
2023/03/06 08:29:10;;;;;;;8.83;4.20;;;;;;;;;;770402;180;918681;-64
2023/03/06 08:31:37;;;;;;;8.30;4.40;;;;;;;;;;767835;180;917857;-65
2023/03/06 08:34:03;;;;;;;7.33;4.63;;;;;;;;;;775747;181;881783;-65
2023/03/06 08:36:29;;;;;;;7.90;3.77;;;;;;;;;;770190;181;814793;-64
2023/03/06 08:38:55;;;;;;;10.03;5.13;;;;;;;;;;769757;181;806662;-64
2023/03/06 08:41:21;;;;;;;9.43;5.00;;;;;;;;;;774532;181;818794;-66
2023/03/06 08:43:46;;;;;;;7.90;5.43;;;;;;;;;;769260;181;976993;-68
2023/03/06 08:46:12;;;;;;;7.53;4.27;;;;;;;;;;770410;181;913190;-65
2023/03/06 08:48:38;;;;;;;8.70;6.00;;;;;;;;;;769238;180;907830;-65
2023/03/06 08:51:04;;;;;;;8.03;4.57;;;;;;;;;;773387;180;914663;-69
2023/03/06 08:53:30;;;;;;;10.20;4.87;;;;;;;;;;773893;180;913558;-64
2023/03/06 08:55:56;;;;;;;7.12;4.40;;;;;;;;;;770623;180;1025079;-67
2023/03/06 08:58:22;;;;;;;7.63;4.23;;;;;;;;;;775858;180;920712;-67
2023/03/06 09:00:47;;;;;;;7.30;4.90;;;;;;;;;;770708;180;921902;-64
2023/03/06 09:03:13;;;;;;;9.40;4.67;;;;;;;;;;772217;180;816790;-67
2023/03/06 09:05:39;;;;;;;6.13;3.77;;;;;;;;;;775633;181;903174;-65
2023/03/06 09:08:05;;;;;;;7.50;4.70;;;;;;;;;;771365;180;899291;-65
2023/03/06 09:10:31;;;;;;;11.20;5.33;;;;;;;;;;773644;181;822898;-67
2023/03/06 09:12:57;;;;;;;8.50;5.53;;;;;;;;;;770583;180;851602;-65
2023/03/06 09:15:23;;;;;;;9.33;4.63;;;;;;;;;;755195;183;1007191;-65
2023/03/06 09:17:49;;;;;;;7.67;4.73;;;;;;;;;;767144;181;921145;-65
2023/03/06 09:20:14;;;;;;;7.43;4.70;;;;;;;;;;771635;180;882180;-65
2023/03/06 09:22:41;;;;;;;10.87;5.03;;;;;;;;;;776351;179;919964;-67
2023/03/06 09:25:08;;;;;;;12.13;4.30;;;;;;;;;;770410;180;919293;-69
2023/03/06 09:27:33;;;;;;;10.10;5.25;;;;;;;;;;771794;181;919064;-68
2023/03/06 09:29:59;;;;;;;7.40;4.77;;;;;;;;;;776460;180;746349;-65
2023/03/06 09:32:25;;;;;;;7.80;4.83;;;;;;;;;;773023;180;814710;-65
2023/03/06 09:34:51;;;;;;;6.83;4.90;;;;;;;;;;773943;181;635440;-67
2023/03/06 09:37:16;;;;;;;7.73;4.43;;;;;;;;;;774702;180;633573;-67
2023/03/06 09:39:42;;;;;;;9.20;5.63;;;;;;;;;;761625;183;920746;-68
2023/03/06 09:42:13;;;;;;;7.27;4.83;;;;;;;;;;774595;180;817441;-66
2023/03/06 09:44:34;;;;;;;6.90;4.13;;;;;;;;;;770003;181;914202;-67
2023/03/06 09:47:06;;;;;;;6.65;3.62;;;;;;;;;;773474;180;916928;-69
2023/03/06 09:49:48;;;;;;;8.40;4.80;;;;;;;;;;771077;180;817790;-63
2023/03/06 09:52:15;;;;;;;6.75;4.35;;;;;;;;;;759576;180;1020560;-66
2023/03/06 09:54:43;;;;;;;9.65;4.85;;;;;;;;;;767113;180;921985;-64
2023/03/06 09:57:19;;;;;;;9.40;5.10;;;;;;;;;;770172;181;844607;-65
2023/03/06 09:59:45;;;;;;;9.33;4.60;;;;;;;;;;777046;181;804879;-67
2023/03/06 10:02:12;;;;;;;9.00;5.80;;;;;;;;;;766661;181;915996;-65
2023/03/06 10:04:38;;;;;;;14.80;5.83;;;;;;;;;;772961;179;924741;-66
2023/03/06 10:07:21;;;;;;;9.43;5.50;;;;;;;;;;774376;180;918298;-65
2023/03/06 10:09:47;;;;;;;8.97;4.90;;;;;;;;;;769244;180;918960;-67
2023/03/06 10:12:15;;;;;;;12.53;6.23;;;;;;;;;;771963;181;919671;-67
2023/03/06 10:14:41;;;;;;;11.70;6.87;;;;;;;;;;770344;180;918906;-65
2023/03/06 10:17:08;;;;;;;10.30;6.60;;;;;;;;;;768510;180;929536;-67
2023/03/06 10:19:34;;;;;;;9.30;6.30;;;;;;;;;;774167;180;801690;-65
2023/03/06 10:22:01;;;;;;;13.90;5.63;;;;;;;;;;773155;180;902847;-67
2023/03/06 10:24:29;;;;;;;9.97;6.40;;;;;;;;;;768027;179;817222;-66
2023/03/06 10:26:58;;;;;;;10.20;6.43;;;;;;;;;;772038;180;919258;-69
2023/03/06 10:29:29;;;;;;;10.00;6.47;;;;;;;;;;774031;181;921412;-65
2023/03/06 10:31:56;;;;;;;9.00;5.97;;;;;;;;;;771114;180;914590;-66
2023/03/06 10:34:22;;;;;;;11.80;6.23;;;;;;;;;;771006;180;915864;-66
2023/03/06 10:36:48;;;;;;;9.97;5.60;;;;;;;;;;770775;180;931688;-66
2023/03/06 10:39:15;;;;;;;8.33;5.23;;;;;;;;;;773888;180;923861;-67
2023/03/06 10:41:41;;;;;;;10.63;5.43;;;;;;;;;;769270;181;916395;-69
2023/03/06 10:44:22;;;;;;;11.83;6.90;;;;;;;;;;769645;180;913855;-68
2023/03/06 10:46:47;;;;;;;10.03;5.77;;;;;;;;;;771512;181;919093;-68
2023/03/06 10:49:28;;;;;;;8.60;5.30;;;;;;;;;;773059;181;918475;-68
2023/03/06 10:51:58;;;;;;;9.67;6.33;;;;;;;;;;766091;181;919266;-66
2023/03/06 10:54:24;;;;;;;10.20;5.93;;;;;;;;;;769345;181;919568;-65
2023/03/06 10:56:49;;;;;;;8.13;5.40;;;;;;;;;;768053;181;919702;-66
2023/03/06 10:59:16;;;;;;;8.40;5.50;;;;;;;;;;772562;179;918736;-66
2023/03/06 11:01:42;;;;;;;8.87;5.93;;;;;;;;;;765740;181;918387;-66
2023/03/06 11:04:13;;;;;;;10.60;6.37;;;;;;;;;;768884;181;936312;-66
2023/03/06 11:06:39;;;;;;;8.50;5.67;;;;;;;;;;767985;180;916619;-68
2023/03/06 11:09:10;;;;;;;11.13;5.80;;;;;;;;;;774792;180;914992;-66
2023/03/06 11:11:36;;;;;;;6.93;4.40;;;;;;;;;;770985;181;915653;-69
2023/03/06 11:14:02;;;;;;;10.13;5.47;;;;;;;;;;770903;181;833852;-66
2023/03/06 11:16:29;;;;;;;10.93;5.83;;;;;;;;;;770126;179;917293;-68
2023/03/06 11:18:54;;;;;;;8.83;5.60;;;;;;;;;;775704;179;921263;-67
2023/03/06 11:21:23;;;;;;;7.67;5.20;;;;;;;;;;773108;180;721167;-65
2023/03/06 11:23:48;;;;;;;12.63;5.50;;;;;;;;;;770019;181;969692;-68
2023/03/06 11:26:30;;;;;;;6.67;4.40;;;;;;;;;;776835;180;918968;-65
2023/03/06 11:28:56;;;;;;;9.83;5.67;;;;;;;;;;767717;180;918602;-69
2023/03/06 11:31:22;;;;;;;8.93;4.93;;;;;;;;;;768033;180;816775;-66
2023/03/06 11:33:48;;;;;;;11.20;6.57;;;;;;;;;;771680;180;910393;-67
2023/03/06 11:36:15;;;;;;;7.63;5.30;;;;;;;;;;774797;180;919318;-69
2023/03/06 11:38:42;;;;;;;9.10;5.37;;;;;;;;;;765537;183;918379;-69
2023/03/06 11:41:07;;;;;;;7.33;5.00;;;;;;;;;;769163;180;939558;-68
2023/03/06 11:43:48;;;;;;;8.63;4.60;;;;;;;;;;771664;180;913894;-66
2023/03/06 11:46:16;;;;;;;11.53;6.20;;;;;;;;;;768508;181;915655;-66
2023/03/06 11:48:41;;;;;;;6.23;4.47;;;;;;;;;;776126;180;811346;-70
2023/03/06 11:51:10;;;;;;;7.27;4.93;;;;;;;;;;762985;181;917207;-67
2023/03/06 11:53:36;;;;;;;7.43;5.20;;;;;;;;;;768335;181;923975;-68
2023/03/06 11:56:18;;;;;;;6.30;3.07;;;;;;;;;;776046;181;921767;-68
2023/03/06 11:58:49;;;;;;;8.80;3.60;;;;;;;;;;763724;183;920858;-66
2023/03/06 12:01:17;;;;;;;8.00;4.27;;;;;;;;;;764876;183;817996;-65
2023/03/06 12:03:43;;;;;;;7.70;3.60;;;;;;;;;;766581;181;866004;-68
2023/03/06 12:06:09;;;;;;;9.10;3.53;;;;;;;;;;769338;181;815797;-67
2023/03/06 12:08:40;;;;;;;6.07;3.67;;;;;;;;;;774456;181;923215;-68
2023/03/06 12:11:08;;;;;;;7.87;3.80;;;;;;;;;;770254;180;918643;-66
2023/03/06 12:13:35;;;;;;;5.27;3.47;;;;;;;;;;771620;181;918902;-66
2023/03/06 12:16:03;;;;;;;5.20;2.50;;;;;;;;;;769639;181;919677;-69
2023/03/06 12:18:31;;;;;;;5.33;3.27;;;;;;;;;;774170;180;918840;-67
2023/03/06 12:21:13;;;;;;;6.00;3.50;;;;;;;;;;771631;180;817114;-67
2023/03/06 12:23:44;;;;;;;6.13;3.47;;;;;;;;;;757738;181;919746;-66
2023/03/06 12:26:13;;;;;;;9.57;3.93;;;;;;;;;;771453;180;923019;-65
2023/03/06 12:28:43;;;;;;;6.77;4.03;;;;;;;;;;770745;178;919109;-66
2023/03/06 12:31:11;;;;;;;8.43;3.07;;;;;;;;;;774499;180;856643;-66
2023/03/06 12:33:52;;;;;;;8.07;3.63;;;;;;;;;;770212;181;957889;-67
2023/03/06 12:36:21;;;;;;;9.10;4.07;;;;;;;;;;770253;180;902623;-67
2023/03/06 12:38:47;;;;;;;8.23;3.50;;;;;;;;;;769618;181;916147;-67
2023/03/06 12:41:27;;;;;;;5.83;3.00;;;;;;;;;;770632;181;920545;-68
2023/03/06 12:43:54;;;;;;;7.80;3.30;;;;;;;;;;768873;181;906095;-65
2023/03/06 12:46:21;;;;;;;6.80;3.77;;;;;;;;;;765799;182;921052;-68
2023/03/06 12:48:47;;;;;;;7.93;4.20;;;;;;;;;;771716;180;918865;-67
2023/03/06 12:51:13;;;;;;;7.97;4.00;;;;;;;;;;769842;181;915559;-66
2023/03/06 12:53:39;;;;;;;7.37;4.60;;;;;;;;;;773962;180;917486;-66
2023/03/06 12:56:05;;;;;;;8.00;3.60;;;;;;;;;;769482;180;920265;-69
2023/03/06 12:58:32;;;;;;;6.80;3.72;;;;;;;;;;766240;180;918481;-66
2023/03/06 13:01:05;;;;;;;8.50;4.27;;;;;;;;;;774338;179;914832;-66
2023/03/06 13:03:48;;;;;;;8.33;5.00;;;;;;;;;;765402;183;817423;-69
2023/03/06 13:06:21;;;;;;;8.63;5.60;;;;;;;;;;765867;183;913697;-67
2023/03/06 13:09:00;;;;;;;7.67;4.20;;;;;;;;;;771895;180;723579;-67
2023/03/06 13:11:27;;;;;;;6.73;4.10;;;;;;;;;;770949;181;928632;-66
2023/03/06 13:13:53;;;;;;;9.70;4.43;;;;;;;;;;770176;181;918708;-66
2023/03/06 13:16:21;;;;;;;7.70;4.27;;;;;;;;;;771098;181;911157;-68
2023/03/06 13:18:50;;;;;;;9.40;4.87;;;;;;;;;;769108;179;910681;-69
2023/03/06 13:21:20;;;;;;;9.50;3.93;;;;;;;;;;773335;179;792634;-68
2023/03/06 13:23:49;;;;;;;8.50;4.87;;;;;;;;;;770712;181;820129;-67
2023/03/06 13:26:21;;;;;;;8.47;3.80;;;;;;;;;;768243;180;916207;-68
2023/03/06 13:28:49;;;;;;;8.63;5.30;;;;;;;;;;770499;178;920431;-66
2023/03/06 13:31:12;;;;;;;9.00;5.30;;;;;;;;;;766686;180;924400;-68
2023/03/06 13:33:53;;;;;;;13.00;5.87;;;;;;;;;;766729;181;918507;-66
2023/03/06 13:36:23;;;;;;;8.57;5.20;;;;;;;;;;767768;181;920183;-69
2023/03/06 13:38:53;;;;;;;7.60;4.95;;;;;;;;;;776117;179;1025173;-67
2023/03/06 13:41:36;;;;;;;9.97;4.50;;;;;;;;;;767545;180;1011655;-66
2023/03/06 13:44:00;;;;;;;8.10;4.90;;;;;;;;;;764381;182;817934;-69
2023/03/06 13:46:28;;;;;;;7.70;6.07;;;;;;;;;;769004;180;905601;-65
2023/03/06 13:49:00;;;;;;;8.55;5.07;;;;;;;;;;773000;181;849766;-67
2023/03/06 13:51:26;;;;;;;11.23;5.53;;;;;;;;;;775502;180;817595;-70
2023/03/06 13:53:52;;;;;;;9.33;5.97;;;;;;;;;;771921;180;898126;-69
2023/03/06 13:56:35;;;;;;;10.13;5.53;;;;;;;;;;771498;181;820164;-68
2023/03/06 13:59:06;;;;;;;9.20;5.20;;;;;;;;;;763239;180;1932925;-66
2023/03/06 14:01:48;;;;;;;11.03;6.80;;;;;;;;;;771097;181;805944;-66
2023/03/06 14:04:20;;;;;;;10.87;5.27;;;;;;;;;;763353;181;887498;-69
2023/03/06 14:07:01;;;;;;;11.87;6.37;;;;;;;;;;774181;180;920953;-65
2023/03/06 14:09:27;;;;;;;11.30;5.43;;;;;;;;;;764368;181;917324;-68
2023/03/06 14:11:54;;;;;;;9.93;5.37;;;;;;;;;;773103;179;915869;-65
2023/03/06 14:14:20;;;;;;;12.57;7.07;;;;;;;;;;773594;180;714105;-68
2023/03/06 14:16:46;;;;;;;10.30;6.13;;;;;;;;;;773724;181;630666;-65
2023/03/06 14:19:13;;;;;;;13.63;6.07;;;;;;;;;;772399;181;919417;-68
2023/03/06 14:21:40;;;;;;;11.80;6.67;;;;;;;;;;772095;180;816882;-69
2023/03/06 14:24:05;;;;;;;15.17;7.83;;;;;;;;;;764906;181;919576;-66